Portada
METAR-TAF:

METAR-TAF

Aeroports :

San José, Costa Rica

latitud: 09-57N, longitud: 084-09W, altitud: 994 m

Observació

L'informe es va fer fa 10 hores i 16 minuts, a les 00:00 UTC
Vent 6 kt del Est/Sud-Est
Temperatura 21°C
Humitat 78%
Pressió 1016 hPa
Visibilitat 10 km o més
Núvols disperses a una alçada de 3000 ft

METAR: MRPV 240000Z 11006KT 9999 SCT030 21/17 A3000 NOSIG

Hora: 04:16 (10:16 UTC)

Pronòstic

L'informe es va fer fa 5 hores i 16 minuts, a les 05:00 UTC
Pronòstic vàlid del 24 a les 06 UTC al 25 a les 06 UTC
Vent 10 kt del Est/Sud-Est
Visibilitat 10 km o més
Escasses núvols a una alçada de 4000 ft
Temporalment
l' 24 a les 20 UTC al 24 a les 24 UTC
Vent 7 kt del Oest
Núvols disperses a una alçada de 3000 ft

TAF: MRPV 240500Z 2406/2506 12010KT 9999 FEW040 TX28/2418Z TN19/2410Z TEMPO 2420/2424 27007KT SCT030

Observacions i pronòstics meteorològics de més de 4000 aeroports (METAR i TAF).

Les estacions disponibles són els punts grocs i vermells al mapa.

Posi el ratolí al punt desitjat per veure el nom de l'estació.

Feu clic per veure les observacions i els pronòstics meteorològics.

Per canviar el mapa: feu clic els botons verds amb una creu de color negre per apropar; al botó verd amb un guió per allunyar la imatge; o en les fletxes verdes per a mapes adjacents.


METAR-TAF: